sensor_id;sensor_type;location;lat;lon;timestamp;pressure;altitude;pressure_sealevel;temperature;humidity
10466;BME280;5280;42.600;23.556;2022-10-19T00:01:11;94004.66;;;9.23;57.59
10466;BME280;5280;42.600;23.556;2022-10-19T00:03:39;93993.19;;;9.10;58.76
10466;BME280;5280;42.600;23.556;2022-10-19T00:06:12;94007.03;;;9.14;60.00
10466;BME280;5280;42.600;23.556;2022-10-19T00:08:39;94006.38;;;9.10;60.81
10466;BME280;5280;42.600;23.556;2022-10-19T00:11:06;93991.78;;;9.04;61.06
10466;BME280;5280;42.600;23.556;2022-10-19T00:13:35;93992.81;;;9.02;61.35
10466;BME280;5280;42.600;23.556;2022-10-19T00:16:07;93976.56;;;8.95;61.93
10466;BME280;5280;42.600;23.556;2022-10-19T00:18:34;93926.72;;;8.64;61.52
10466;BME280;5280;42.600;23.556;2022-10-19T00:21:03;93975.53;;;8.84;61.98
10466;BME280;5280;42.600;23.556;2022-10-19T00:23:31;93979.13;;;8.83;61.87
10466;BME280;5280;42.600;23.556;2022-10-19T00:25:58;93967.72;;;8.82;61.92
10466;BME280;5280;42.600;23.556;2022-10-19T00:28:25;93960.66;;;8.83;61.39
10466;BME280;5280;42.600;23.556;2022-10-19T00:30:54;93946.97;;;8.63;61.58
10466;BME280;5280;42.600;23.556;2022-10-19T00:33:21;93980.16;;;8.80;61.54
10466;BME280;5280;42.600;23.556;2022-10-19T00:35:50;93979.78;;;8.72;61.53
10466;BME280;5280;42.600;23.556;2022-10-19T00:38:17;93982.53;;;8.71;61.47
10466;BME280;5280;42.600;23.556;2022-10-19T00:40:45;93971.72;;;8.61;61.30
10466;BME280;5280;42.600;23.556;2022-10-19T00:43:13;93974.16;;;8.64;60.62
10466;BME280;5280;42.600;23.556;2022-10-19T00:45:41;93973.69;;;8.57;60.45
10466;BME280;5280;42.600;23.556;2022-10-19T00:48:13;93958.84;;;8.56;59.44
10466;BME280;5280;42.600;23.556;2022-10-19T00:50:41;93956.75;;;8.47;60.27
10466;BME280;5280;42.600;23.556;2022-10-19T00:53:10;93950.09;;;8.42;60.56
10466;BME280;5280;42.600;23.556;2022-10-19T00:55:38;93944.72;;;8.43;61.35
10466;BME280;5280;42.600;23.556;2022-10-19T00:58:06;93944.16;;;8.38;61.64
10466;BME280;5280;42.600;23.556;2022-10-19T01:00:34;93924.56;;;8.28;61.34
10466;BME280;5280;42.600;23.556;2022-10-19T01:03:02;93925.63;;;8.26;61.60
10466;BME280;5280;42.600;23.556;2022-10-19T01:05:31;93927.41;;;8.25;62.50
10466;BME280;5280;42.600;23.556;2022-10-19T01:07:59;93933.03;;;8.19;62.84
10466;BME280;5280;42.600;23.556;2022-10-19T01:10:30;93918.81;;;8.07;63.54
10466;BME280;5280;42.600;23.556;2022-10-19T01:13:10;93927.69;;;8.06;63.99
10466;BME280;5280;42.600;23.556;2022-10-19T01:15:46;93916.69;;;8.00;64.05
10466;BME280;5280;42.600;23.556;2022-10-19T01:18:20;93918.38;;;8.01;62.98
10466;BME280;5280;42.600;23.556;2022-10-19T01:21:16;93921.28;;;7.96;63.65
10466;BME280;5280;42.600;23.556;2022-10-19T01:30:12;93917.69;;;7.83;62.41
10466;BME280;5280;42.600;23.556;2022-10-19T01:32:51;93909.22;;;7.78;62.42
10466;BME280;5280;42.600;23.556;2022-10-19T01:35:26;93913.84;;;7.74;62.83
10466;BME280;5280;42.600;23.556;2022-10-19T01:38:02;93918.31;;;7.72;64.18
10466;BME280;5280;42.600;23.556;2022-10-19T01:40:37;93914.97;;;7.70;62.62
10466;BME280;5280;42.600;23.556;2022-10-19T01:43:11;93915.03;;;7.69;62.66
10466;BME280;5280;42.600;23.556;2022-10-19T01:45:47;93888.34;;;7.47;62.74
10466;BME280;5280;42.600;23.556;2022-10-19T01:48:16;93909.41;;;7.61;63.93
10466;BME280;5280;42.600;23.556;2022-10-19T01:50:48;93908.91;;;7.54;63.99
10466;BME280;5280;42.600;23.556;2022-10-19T01:53:17;93908.91;;;7.54;64.20
10466;BME280;5280;42.600;23.556;2022-10-19T01:55:49;93907.47;;;7.49;65.55
10466;BME280;5280;42.600;23.556;2022-10-19T01:58:20;93907.56;;;7.47;65.38
10466;BME280;5280;42.600;23.556;2022-10-19T02:00:51;93906.91;;;7.44;65.65
10466;BME280;5280;42.600;23.556;2022-10-19T02:03:19;93877.31;;;7.26;65.70
10466;BME280;5280;42.600;23.556;2022-10-19T02:05:49;93902.00;;;7.38;66.35
10466;BME280;5280;42.600;23.556;2022-10-19T02:08:22;93899.84;;;7.30;66.53
10466;BME280;5280;42.600;23.556;2022-10-19T02:10:52;93874.25;;;7.18;66.05
10466;BME280;5280;42.600;23.556;2022-10-19T02:13:23;93894.38;;;7.33;65.56
10466;BME280;5280;42.600;23.556;2022-10-19T02:15:55;93893.06;;;7.26;65.34
10466;BME280;5280;42.600;23.556;2022-10-19T02:18:28;93894.50;;;7.31;65.45
10466;BME280;5280;42.600;23.556;2022-10-19T02:20:57;93889.31;;;7.30;66.03
10466;BME280;5280;42.600;23.556;2022-10-19T02:23:24;93870.88;;;7.16;65.43
10466;BME280;5280;42.600;23.556;2022-10-19T02:25:52;93892.22;;;7.25;65.46
10466;BME280;5280;42.600;23.556;2022-10-19T02:28:20;93888.16;;;7.20;66.42
10466;BME280;5280;42.600;23.556;2022-10-19T02:30:48;93900.19;;;7.24;66.15
10466;BME280;5280;42.600;23.556;2022-10-19T02:33:16;93823.00;;;6.81;66.14
10466;BME280;5280;42.600;23.556;2022-10-19T02:35:43;93871.44;;;7.07;66.89
10466;BME280;5280;42.600;23.556;2022-10-19T02:38:14;93896.97;;;7.19;67.44
10466;BME280;5280;42.600;23.556;2022-10-19T02:40:45;93891.16;;;7.14;66.60
10466;BME280;5280;42.600;23.556;2022-10-19T02:43:14;93865.59;;;7.02;67.78
10466;BME280;5280;42.600;23.556;2022-10-19T02:45:50;93880.03;;;7.09;67.72
10466;BME280;5280;42.600;23.556;2022-10-19T02:48:23;93881.94;;;7.07;68.10
10466;BME280;5280;42.600;23.556;2022-10-19T02:50:50;93884.56;;;7.07;67.96
10466;BME280;5280;42.600;23.556;2022-10-19T02:53:17;93871.59;;;7.04;68.39
10466;BME280;5280;42.600;23.556;2022-10-19T02:55:46;93876.09;;;7.02;68.61
10466;BME280;5280;42.600;23.556;2022-10-19T02:58:14;93865.09;;;6.95;68.76
10466;BME280;5280;42.600;23.556;2022-10-19T03:00:40;93875.34;;;7.00;68.73
10466;BME280;5280;42.600;23.556;2022-10-19T03:03:08;93847.13;;;6.87;68.62
10466;BME280;5280;42.600;23.556;2022-10-19T03:05:36;93867.44;;;7.00;68.23
10466;BME280;5280;42.600;23.556;2022-10-19T03:08:03;93850.59;;;6.88;68.17
10466;BME280;5280;42.600;23.556;2022-10-19T03:10:30;93859.75;;;6.97;68.54
10466;BME280;5280;42.600;23.556;2022-10-19T03:12:57;93870.84;;;7.02;68.75
10466;BME280;5280;42.600;23.556;2022-10-19T03:15:24;93863.47;;;6.92;67.32
10466;BME280;5280;42.600;23.556;2022-10-19T03:17:53;93871.28;;;6.94;68.61
10466;BME280;5280;42.600;23.556;2022-10-19T03:20:20;93875.88;;;6.90;69.63
10466;BME280;5280;42.600;23.556;2022-10-19T03:22:49;93875.09;;;6.88;68.62
10466;BME280;5280;42.600;23.556;2022-10-19T03:25:15;93879.59;;;6.86;67.90
10466;BME280;5280;42.600;23.556;2022-10-19T03:27:42;93876.41;;;6.81;68.71
10466;BME280;5280;42.600;23.556;2022-10-19T03:30:10;93874.38;;;6.71;68.57
10466;BME280;5280;42.600;23.556;2022-10-19T03:32:36;93892.84;;;6.69;68.32
10466;BME280;5280;42.600;23.556;2022-10-19T03:35:04;93849.38;;;6.48;67.60
10466;BME280;5280;42.600;23.556;2022-10-19T03:37:31;93866.25;;;6.60;67.86
10466;BME280;5280;42.600;23.556;2022-10-19T03:39:59;93874.91;;;6.62;68.58
10466;BME280;5280;42.600;23.556;2022-10-19T03:42:26;93870.25;;;6.51;68.66
10466;BME280;5280;42.600;23.556;2022-10-19T03:44:53;93856.00;;;6.39;68.76
10466;BME280;5280;42.600;23.556;2022-10-19T03:47:20;93867.19;;;6.43;69.43
10466;BME280;5280;42.600;23.556;2022-10-19T03:49:47;93867.44;;;6.38;69.73
10466;BME280;5280;42.600;23.556;2022-10-19T03:52:15;93852.06;;;6.32;69.61
10466;BME280;5280;42.600;23.556;2022-10-19T03:54:42;93830.78;;;6.21;70.33
10466;BME280;5280;42.600;23.556;2022-10-19T03:57:11;93805.47;;;6.04;70.73
10466;BME280;5280;42.600;23.556;2022-10-19T03:59:38;93850.50;;;6.28;71.25
10466;BME280;5280;42.600;23.556;2022-10-19T04:02:04;93854.16;;;6.26;71.30
10466;BME280;5280;42.600;23.556;2022-10-19T04:04:31;93849.25;;;6.20;71.49
10466;BME280;5280;42.600;23.556;2022-10-19T04:06:58;93845.09;;;6.16;71.66
10466;BME280;5280;42.600;23.556;2022-10-19T04:09:25;93856.44;;;6.16;72.26
10466;BME280;5280;42.600;23.556;2022-10-19T04:11:52;93853.91;;;6.15;72.04
10466;BME280;5280;42.600;23.556;2022-10-19T04:14:21;93858.41;;;6.13;72.08
10466;BME280;5280;42.600;23.556;2022-10-19T04:16:48;93793.75;;;5.79;72.76
10466;BME280;5280;42.600;23.556;2022-10-19T04:19:15;93838.66;;;6.05;72.95
10466;BME280;5280;42.600;23.556;2022-10-19T04:21:42;93859.81;;;6.18;73.04
10466;BME280;5280;42.600;23.556;2022-10-19T04:24:11;93856.69;;;6.12;71.67
10466;BME280;5280;42.600;23.556;2022-10-19T04:26:42;93851.94;;;6.18;71.58
10466;BME280;5280;42.600;23.556;2022-10-19T04:29:10;93843.72;;;6.09;70.77
10466;BME280;5280;42.600;23.556;2022-10-19T04:31:39;93851.19;;;6.16;70.44
10466;BME280;5280;42.600;23.556;2022-10-19T04:34:06;93846.94;;;6.14;71.31
10466;BME280;5280;42.600;23.556;2022-10-19T04:36:33;93850.53;;;6.13;71.10
10466;BME280;5280;42.600;23.556;2022-10-19T04:39:00;93853.97;;;6.13;71.52
10466;BME280;5280;42.600;23.556;2022-10-19T04:41:27;93842.88;;;6.08;71.56
10466;BME280;5280;42.600;23.556;2022-10-19T04:43:55;93848.22;;;6.07;71.46
10466;BME280;5280;42.600;23.556;2022-10-19T04:46:23;93843.66;;;6.10;72.23
10466;BME280;5280;42.600;23.556;2022-10-19T04:48:52;93840.63;;;6.02;72.68
10466;BME280;5280;42.600;23.556;2022-10-19T04:51:20;93837.28;;;5.98;73.70
10466;BME280;5280;42.600;23.556;2022-10-19T04:53:47;93841.53;;;6.01;73.20
10466;BME280;5280;42.600;23.556;2022-10-19T04:56:15;93843.13;;;6.03;72.69
10466;BME280;5280;42.600;23.556;2022-10-19T04:58:43;93812.63;;;5.85;72.89
10466;BME280;5280;42.600;23.556;2022-10-19T05:01:12;93826.91;;;5.97;73.27
10466;BME280;5280;42.600;23.556;2022-10-19T05:03:39;93846.13;;;5.97;73.04
10466;BME280;5280;42.600;23.556;2022-10-19T05:06:08;93837.28;;;5.98;73.72
10466;BME280;5280;42.600;23.556;2022-10-19T05:08:36;93836.53;;;5.96;75.00
10466;BME280;5280;42.600;23.556;2022-10-19T05:11:05;93837.28;;;5.98;75.02
10466;BME280;5280;42.600;23.556;2022-10-19T05:13:33;93835.38;;;6.02;73.63
10466;BME280;5280;42.600;23.556;2022-10-19T05:16:02;93822.06;;;5.89;73.32
10466;BME280;5280;42.600;23.556;2022-10-19T05:18:30;93856.25;;;6.03;72.89
10466;BME280;5280;42.600;23.556;2022-10-19T05:21:01;93850.06;;;6.04;72.72
10466;BME280;5280;42.600;23.556;2022-10-19T05:23:29;93830.28;;;5.99;73.34
10466;BME280;5280;42.600;23.556;2022-10-19T05:26:00;93826.78;;;5.98;73.29
10466;BME280;5280;42.600;23.556;2022-10-19T05:28:28;93847.31;;;6.08;72.82
10466;BME280;5280;42.600;23.556;2022-10-19T05:30:55;93806.53;;;5.85;72.51
10466;BME280;5280;42.600;23.556;2022-10-19T05:33:22;93844.50;;;6.11;71.75
10466;BME280;5280;42.600;23.556;2022-10-19T05:35:48;93829.00;;;6.06;72.32
10466;BME280;5280;42.600;23.556;2022-10-19T05:38:15;93836.44;;;6.14;72.42
10466;BME280;5280;42.600;23.556;2022-10-19T05:40:46;93839.94;;;6.14;72.78
10466;BME280;5280;42.600;23.556;2022-10-19T05:43:13;93835.44;;;6.16;73.34
10466;BME280;5280;42.600;23.556;2022-10-19T05:45:40;93831.31;;;6.12;73.58
10466;BME280;5280;42.600;23.556;2022-10-19T05:48:07;93834.41;;;6.19;73.74
10466;BME280;5280;42.600;23.556;2022-10-19T05:50:34;93837.03;;;6.19;73.15
10466;BME280;5280;42.600;23.556;2022-10-19T05:53:01;93826.13;;;6.11;74.11
10466;BME280;5280;42.600;23.556;2022-10-19T05:55:28;93852.53;;;6.23;73.09
10466;BME280;5280;42.600;23.556;2022-10-19T05:57:57;93845.69;;;6.21;73.38
10466;BME280;5280;42.600;23.556;2022-10-19T06:00:24;93836.91;;;6.22;73.25
10466;BME280;5280;42.600;23.556;2022-10-19T06:02:51;93838.66;;;6.21;72.79
10466;BME280;5280;42.600;23.556;2022-10-19T06:05:18;93846.09;;;6.29;74.18
10466;BME280;5280;42.600;23.556;2022-10-19T06:07:45;93840.69;;;6.32;73.82
10466;BME280;5280;42.600;23.556;2022-10-19T06:10:12;93818.66;;;6.19;73.24
10466;BME280;5280;42.600;23.556;2022-10-19T06:12:39;93842.28;;;6.34;74.10
10466;BME280;5280;42.600;23.556;2022-10-19T06:15:09;93841.44;;;6.34;74.38
10466;BME280;5280;42.600;23.556;2022-10-19T06:17:36;93860.16;;;6.43;73.83
10466;BME280;5280;42.600;23.556;2022-10-19T06:20:03;93849.84;;;6.40;74.27
10466;BME280;5280;42.600;23.556;2022-10-19T06:22:31;93871.34;;;6.47;73.89
10466;BME280;5280;42.600;23.556;2022-10-19T06:24:58;93848.91;;;6.41;73.47
10466;BME280;5280;42.600;23.556;2022-10-19T06:27:25;93868.47;;;6.52;74.46
10466;BME280;5280;42.600;23.556;2022-10-19T06:29:53;93861.34;;;6.54;74.37
10466;BME280;5280;42.600;23.556;2022-10-19T06:37:28;93865.56;;;6.72;75.91
10466;BME280;5280;42.600;23.556;2022-10-19T06:39:55;93863.53;;;6.77;76.84
10466;BME280;5280;42.600;23.556;2022-10-19T06:42:23;93870.19;;;6.82;78.50
10466;BME280;5280;42.600;23.556;2022-10-19T06:44:50;93871.53;;;6.89;78.72
10466;BME280;5280;42.600;23.556;2022-10-19T06:47:17;93861.97;;;6.88;78.49
10466;BME280;5280;42.600;23.556;2022-10-19T06:49:44;93869.16;;;7.01;78.03
10466;BME280;5280;42.600;23.556;2022-10-19T06:52:11;93864.63;;;7.03;78.06
10466;BME280;5280;42.600;23.556;2022-10-19T06:54:39;93865.97;;;7.10;78.28
10466;BME280;5280;42.600;23.556;2022-10-19T06:57:06;93852.06;;;7.08;78.98
10466;BME280;5280;42.600;23.556;2022-10-19T06:59:33;93864.44;;;7.21;79.08
10466;BME280;5280;42.600;23.556;2022-10-19T07:02:01;93853.72;;;7.24;79.39
10466;BME280;5280;42.600;23.556;2022-10-19T07:04:28;93862.75;;;7.34;79.97
10466;BME280;5280;42.600;23.556;2022-10-19T07:06:55;93855.53;;;7.38;79.26
10466;BME280;5280;42.600;23.556;2022-10-19T07:09:22;93824.81;;;7.24;79.42
10466;BME280;5280;42.600;23.556;2022-10-19T07:11:50;93835.47;;;7.51;78.93
10466;BME280;5280;42.600;23.556;2022-10-19T07:14:17;93824.38;;;7.60;78.65
10466;BME280;5280;42.600;23.556;2022-10-19T07:16:45;93829.56;;;7.76;77.73
10466;BME280;5280;42.600;23.556;2022-10-19T07:19:11;93825.59;;;7.83;77.66
10466;BME280;5280;42.600;23.556;2022-10-19T07:21:41;93807.28;;;7.82;76.33
10466;BME280;5280;42.600;23.556;2022-10-19T07:24:10;93845.50;;;8.15;75.66
10466;BME280;5280;42.600;23.556;2022-10-19T07:26:37;93831.78;;;8.25;74.91
10466;BME280;5280;42.600;23.556;2022-10-19T07:29:06;93832.53;;;8.41;74.61
10466;BME280;5280;42.600;23.556;2022-10-19T07:31:33;93829.75;;;8.56;73.17
10466;BME280;5280;42.600;23.556;2022-10-19T07:34:02;93832.94;;;8.61;70.71
10466;BME280;5280;42.600;23.556;2022-10-19T07:36:31;93831.41;;;8.72;69.76
10466;BME280;5280;42.600;23.556;2022-10-19T07:39:00;93831.69;;;8.94;69.13
10466;BME280;5280;42.600;23.556;2022-10-19T07:41:32;93808.91;;;8.93;68.89
10466;BME280;5280;42.600;23.556;2022-10-19T07:44:00;93824.06;;;9.16;68.75
10466;BME280;5280;42.600;23.556;2022-10-19T07:46:32;93827.31;;;9.32;68.07
10466;BME280;5280;42.600;23.556;2022-10-19T07:49:00;93828.94;;;9.47;67.45
10466;BME280;5280;42.600;23.556;2022-10-19T07:51:27;93815.63;;;9.62;66.96
10466;BME280;5280;42.600;23.556;2022-10-19T07:53:54;93807.66;;;9.76;65.55
10466;BME280;5280;42.600;23.556;2022-10-19T07:56:23;93808.69;;;9.86;64.77
10466;BME280;5280;42.600;23.556;2022-10-19T07:58:52;93813.09;;;9.98;65.95
10466;BME280;5280;42.600;23.556;2022-10-19T08:01:20;93784.28;;;9.95;64.59
10466;BME280;5280;42.600;23.556;2022-10-19T08:03:51;93812.34;;;10.21;64.24
10466;BME280;5280;42.600;23.556;2022-10-19T08:06:19;93790.50;;;10.19;64.63
10466;BME280;5280;42.600;23.556;2022-10-19T08:08:47;93790.59;;;10.30;63.28
10466;BME280;5280;42.600;23.556;2022-10-19T08:11:16;93787.78;;;10.45;64.36
10466;BME280;5280;42.600;23.556;2022-10-19T08:13:44;93727.72;;;10.23;63.30
10466;BME280;5280;42.600;23.556;2022-10-19T08:16:21;93798.25;;;10.70;62.83
10466;BME280;5280;42.600;23.556;2022-10-19T08:18:50;93792.81;;;10.84;61.83
10466;BME280;5280;42.600;23.556;2022-10-19T08:21:17;93789.03;;;10.99;61.82
10466;BME280;5280;42.600;23.556;2022-10-19T08:23:44;93790.63;;;11.13;62.39
10466;BME280;5280;42.600;23.556;2022-10-19T08:26:11;93783.81;;;11.21;61.45
10466;BME280;5280;42.600;23.556;2022-10-19T08:28:39;93786.97;;;11.38;61.66
10466;BME280;5280;42.600;23.556;2022-10-19T08:31:10;93774.28;;;11.54;60.82
10466;BME280;5280;42.600;23.556;2022-10-19T08:33:38;93789.63;;;11.73;60.18
10466;BME280;5280;42.600;23.556;2022-10-19T08:36:08;93777.00;;;11.87;59.34
10466;BME280;5280;42.600;23.556;2022-10-19T08:38:37;93789.78;;;12.04;57.76
10466;BME280;5280;42.600;23.556;2022-10-19T08:41:15;93783.50;;;12.17;58.56
10466;BME280;5280;42.600;23.556;2022-10-19T08:43:55;93785.19;;;12.29;56.64
10466;BME280;5280;42.600;23.556;2022-10-19T08:46:31;93770.94;;;12.41;55.45
10466;BME280;5280;42.600;23.556;2022-10-19T08:49:02;93779.13;;;12.60;54.99
10466;BME280;5280;42.600;23.556;2022-10-19T08:51:35;93776.78;;;12.78;53.93
10466;BME280;5280;42.600;23.556;2022-10-19T08:54:07;93766.25;;;12.87;54.42
10466;BME280;5280;42.600;23.556;2022-10-19T08:56:46;93767.38;;;13.06;52.97
10466;BME280;5280;42.600;23.556;2022-10-19T08:59:22;93765.69;;;13.16;50.82
10466;BME280;5280;42.600;23.556;2022-10-19T09:01:54;93747.56;;;13.21;50.20
10466;BME280;5280;42.600;23.556;2022-10-19T09:04:25;93764.09;;;13.45;51.58
10466;BME280;5280;42.600;23.556;2022-10-19T09:07:03;93765.22;;;13.63;50.08
10466;BME280;5280;42.600;23.556;2022-10-19T09:09:34;93766.78;;;13.75;47.60
10466;BME280;5280;42.600;23.556;2022-10-19T09:12:04;93755.97;;;13.88;47.65
10466;BME280;5280;42.600;23.556;2022-10-19T09:14:34;93745.53;;;13.96;46.35
10466;BME280;5280;42.600;23.556;2022-10-19T09:17:09;93762.84;;;14.21;47.16
10466;BME280;5280;42.600;23.556;2022-10-19T09:19:38;93750.75;;;14.38;46.10
10466;BME280;5280;42.600;23.556;2022-10-19T09:22:16;93752.91;;;14.53;45.70
10466;BME280;5280;42.600;23.556;2022-10-19T09:24:49;93744.66;;;14.66;45.12
10466;BME280;5280;42.600;23.556;2022-10-19T09:27:21;93724.94;;;14.59;46.06
10466;BME280;5280;42.600;23.556;2022-10-19T09:29:52;93744.28;;;14.80;45.59
10466;BME280;5280;42.600;23.556;2022-10-19T09:32:24;93742.75;;;14.87;44.19
10466;BME280;5280;42.600;23.556;2022-10-19T09:34:53;93734.22;;;14.93;44.87
10466;BME280;5280;42.600;23.556;2022-10-19T09:37:23;93741.50;;;15.01;46.21
10466;BME280;5280;42.600;23.556;2022-10-19T09:39:50;93730.59;;;15.04;44.63
10466;BME280;5280;42.600;23.556;2022-10-19T09:42:21;93744.31;;;15.19;44.13
10466;BME280;5280;42.600;23.556;2022-10-19T09:44:49;93742.50;;;15.19;42.59
10466;BME280;5280;42.600;23.556;2022-10-19T09:47:30;93727.50;;;15.18;43.56
10466;BME280;5280;42.600;23.556;2022-10-19T09:50:22;93747.41;;;15.43;43.43
10466;BME280;5280;42.600;23.556;2022-10-19T09:52:51;93748.50;;;15.50;43.31
10466;BME280;5280;42.600;23.556;2022-10-19T09:55:24;93718.25;;;15.51;44.00
10466;BME280;5280;42.600;23.556;2022-10-19T09:57:59;93726.09;;;15.62;41.81
10466;BME280;5280;42.600;23.556;2022-10-19T10:00:32;93726.06;;;15.72;42.70
10466;BME280;5280;42.600;23.556;2022-10-19T10:03:00;93724.53;;;15.79;41.08
10466;BME280;5280;42.600;23.556;2022-10-19T10:05:30;93720.56;;;15.83;42.60
10466;BME280;5280;42.600;23.556;2022-10-19T10:07:59;93719.00;;;15.90;41.96
10466;BME280;5280;42.600;23.556;2022-10-19T10:10:29;93718.75;;;15.83;42.47
10466;BME280;5280;42.600;23.556;2022-10-19T10:12:59;93718.84;;;15.91;41.92
10466;BME280;5280;42.600;23.556;2022-10-19T10:15:29;93717.84;;;16.02;40.66
10466;BME280;5280;42.600;23.556;2022-10-19T10:18:00;93703.81;;;16.00;40.55
10466;BME280;5280;42.600;23.556;2022-10-19T10:20:28;93717.53;;;16.05;40.55
10466;BME280;5280;42.600;23.556;2022-10-19T10:23:00;93709.28;;;16.08;41.29
10466;BME280;5280;42.600;23.556;2022-10-19T10:25:29;93700.97;;;16.11;40.91
10466;BME280;5280;42.600;23.556;2022-10-19T10:28:00;93685.72;;;16.04;41.17
10466;BME280;5280;42.600;23.556;2022-10-19T10:30:31;93687.72;;;16.19;41.27
10466;BME280;5280;42.600;23.556;2022-10-19T10:33:00;93680.56;;;16.20;41.30
10466;BME280;5280;42.600;23.556;2022-10-19T10:35:30;93660.78;;;16.22;41.46
10466;BME280;5280;42.600;23.556;2022-10-19T10:38:12;93664.22;;;16.32;40.66
10466;BME280;5280;42.600;23.556;2022-10-19T10:40:40;93653.13;;;16.37;40.97
10466;BME280;5280;42.600;23.556;2022-10-19T10:43:16;93664.56;;;16.47;40.43
10466;BME280;5280;42.600;23.556;2022-10-19T10:45:46;93670.94;;;16.64;38.92
10466;BME280;5280;42.600;23.556;2022-10-19T10:48:23;93653.66;;;16.68;39.41
10466;BME280;5280;42.600;23.556;2022-10-19T10:50:53;93655.88;;;16.72;40.17
10466;BME280;5280;42.600;23.556;2022-10-19T10:53:38;93631.91;;;16.63;38.58
10466;BME280;5280;42.600;23.556;2022-10-19T10:56:21;93629.31;;;16.71;38.09
10466;BME280;5280;42.600;23.556;2022-10-19T10:58:51;93656.84;;;16.89;37.47
10466;BME280;5280;42.600;23.556;2022-10-19T11:01:22;93637.09;;;16.82;37.52
10466;BME280;5280;42.600;23.556;2022-10-19T11:03:53;93637.94;;;17.00;38.49
10466;BME280;5280;42.600;23.556;2022-10-19T11:06:24;93611.78;;;16.86;38.61
10466;BME280;5280;42.600;23.556;2022-10-19T11:08:58;93620.59;;;17.04;39.53
10466;BME280;5280;42.600;23.556;2022-10-19T11:11:33;93622.00;;;17.08;39.56
10466;BME280;5280;42.600;23.556;2022-10-19T11:14:14;93620.88;;;17.19;37.23
10466;BME280;5280;42.600;23.556;2022-10-19T11:16:46;93617.31;;;17.10;38.90
10466;BME280;5280;42.600;23.556;2022-10-19T11:19:17;93602.66;;;17.14;38.91
10466;BME280;5280;42.600;23.556;2022-10-19T11:21:55;93609.59;;;17.25;36.47
10466;BME280;5280;42.600;23.556;2022-10-19T11:24:31;93573.75;;;17.10;37.29
10466;BME280;5280;42.600;23.556;2022-10-19T11:27:12;93604.00;;;17.36;37.73
10466;BME280;5280;42.600;23.556;2022-10-19T11:29:57;93586.38;;;17.26;37.93
10466;BME280;5280;42.600;23.556;2022-10-19T11:32:34;93595.50;;;17.41;38.49
10466;BME280;5280;42.600;23.556;2022-10-19T11:35:13;93594.38;;;17.43;37.72
10466;BME280;5280;42.600;23.556;2022-10-19T11:37:49;93574.09;;;17.33;38.38
10466;BME280;5280;42.600;23.556;2022-10-19T11:40:25;93584.94;;;17.57;36.02
10466;BME280;5280;42.600;23.556;2022-10-19T11:43:01;93586.63;;;17.58;36.25
10466;BME280;5280;42.600;23.556;2022-10-19T11:45:40;93580.66;;;17.64;36.35
10466;BME280;5280;42.600;23.556;2022-10-19T11:48:30;93579.72;;;17.73;36.21
10466;BME280;5280;42.600;23.556;2022-10-19T11:51:06;93578.06;;;17.80;35.30
10466;BME280;5280;42.600;23.556;2022-10-19T11:53:45;93567.03;;;17.83;35.15
10466;BME280;5280;42.600;23.556;2022-10-19T11:56:20;93568.34;;;17.79;35.33
10466;BME280;5280;42.600;23.556;2022-10-19T11:58:57;93583.97;;;17.92;34.64
10466;BME280;5280;42.600;23.556;2022-10-19T12:01:36;93561.38;;;17.86;34.49
10466;BME280;5280;42.600;23.556;2022-10-19T12:04:28;93567.59;;;17.95;35.12
10466;BME280;5280;42.600;23.556;2022-10-19T12:07:09;93567.59;;;17.95;35.76
10466;BME280;5280;42.600;23.556;2022-10-19T12:09:48;93562.41;;;17.93;35.22
10466;BME280;5280;42.600;23.556;2022-10-19T12:12:25;93550.91;;;18.01;35.74
10466;BME280;5280;42.600;23.556;2022-10-19T12:15:00;93523.94;;;17.78;36.22
10466;BME280;5280;42.600;23.556;2022-10-19T12:17:32;93550.78;;;18.11;34.78
10466;BME280;5280;42.600;23.556;2022-10-19T12:20:04;93557.47;;;18.15;35.96
10466;BME280;5280;42.600;23.556;2022-10-19T12:22:34;93552.97;;;18.15;35.86
10466;BME280;5280;42.600;23.556;2022-10-19T12:25:03;93549.94;;;18.18;33.25
10466;BME280;5280;42.600;23.556;2022-10-19T12:27:34;93498.56;;;17.98;31.07
10466;BME280;5280;42.600;23.556;2022-10-19T12:30:04;93541.47;;;18.23;31.88
10466;BME280;5280;42.600;23.556;2022-10-19T12:32:38;93520.34;;;18.12;32.35
10466;BME280;5280;42.600;23.556;2022-10-19T12:35:20;93533.94;;;18.26;31.34
10466;BME280;5280;42.600;23.556;2022-10-19T12:37:54;93488.22;;;18.03;30.70
10466;BME280;5280;42.600;23.556;2022-10-19T12:40:30;93532.41;;;18.24;32.19
10466;BME280;5280;42.600;23.556;2022-10-19T12:43:06;93521.06;;;18.22;33.01
10466;BME280;5280;42.600;23.556;2022-10-19T12:45:39;93534.59;;;18.28;31.78
10466;BME280;5280;42.600;23.556;2022-10-19T12:48:21;93534.44;;;18.30;32.25
10466;BME280;5280;42.600;23.556;2022-10-19T12:51:18;93535.63;;;18.27;33.20
10466;BME280;5280;42.600;23.556;2022-10-19T12:53:46;93533.59;;;18.29;33.74
10466;BME280;5280;42.600;23.556;2022-10-19T12:56:22;93536.06;;;18.15;31.65
10466;BME280;5280;42.600;23.556;2022-10-19T12:58:53;93528.38;;;18.20;32.60
10466;BME280;5280;42.600;23.556;2022-10-19T13:01:24;93508.63;;;18.04;31.71
10466;BME280;5280;42.600;23.556;2022-10-19T13:04:05;93533.75;;;18.20;32.20
10466;BME280;5280;42.600;23.556;2022-10-19T13:06:34;93523.03;;;18.20;32.23
10466;BME280;5280;42.600;23.556;2022-10-19T13:09:04;93523.03;;;18.20;33.17
10466;BME280;5280;42.600;23.556;2022-10-19T13:11:32;93477.66;;;17.94;33.16
10466;BME280;5280;42.600;23.556;2022-10-19T13:14:03;93522.72;;;18.23;32.48
10466;BME280;5280;42.600;23.556;2022-10-19T13:16:55;93491.22;;;17.92;32.67
10466;BME280;5280;42.600;23.556;2022-10-19T13:19:22;93516.69;;;18.13;32.17
10466;BME280;5280;42.600;23.556;2022-10-19T13:25:19;93524.06;;;18.27;31.98
10466;BME280;5280;42.600;23.556;2022-10-19T13:27:48;93525.06;;;18.34;32.59
10466;BME280;5280;42.600;23.556;2022-10-19T13:33:54;93524.56;;;18.30;32.97
10466;BME280;5280;42.600;23.556;2022-10-19T13:36:21;93519.38;;;18.21;33.76
10466;BME280;5280;42.600;23.556;2022-10-19T13:39:11;93525.72;;;18.20;33.81
10466;BME280;5280;42.600;23.556;2022-10-19T13:41:50;93516.19;;;18.17;34.20
10466;BME280;5280;42.600;23.556;2022-10-19T13:44:26;93511.50;;;18.19;33.63